sensor_id;sensor_type;location;lat;lon;timestamp;P1;durP1;ratioP1;P2;durP2;ratioP2
18689;SDS011;9782;52.930;15.562;2023-05-13T00:00:37;5.87;;;4.80;;
18689;SDS011;9782;52.930;15.562;2023-05-13T00:03:04;10.50;;;5.00;;
18689;SDS011;9782;52.930;15.562;2023-05-13T00:05:31;8.53;;;5.37;;
18689;SDS011;9782;52.930;15.562;2023-05-13T00:07:57;8.20;;;4.87;;
18689;SDS011;9782;52.930;15.562;2023-05-13T00:10:26;7.77;;;4.97;;
18689;SDS011;9782;52.930;15.562;2023-05-13T00:12:52;9.37;;;5.87;;
18689;SDS011;9782;52.930;15.562;2023-05-13T00:15:19;8.23;;;5.03;;
18689;SDS011;9782;52.930;15.562;2023-05-13T00:17:47;9.07;;;4.83;;
18689;SDS011;9782;52.930;15.562;2023-05-13T00:20:14;5.87;;;4.47;;
18689;SDS011;9782;52.930;15.562;2023-05-13T00:22:41;9.70;;;4.80;;
18689;SDS011;9782;52.930;15.562;2023-05-13T00:25:08;7.03;;;4.90;;
18689;SDS011;9782;52.930;15.562;2023-05-13T00:27:35;8.07;;;5.07;;
18689;SDS011;9782;52.930;15.562;2023-05-13T00:30:02;8.47;;;5.30;;
18689;SDS011;9782;52.930;15.562;2023-05-13T00:32:29;10.53;;;5.17;;
18689;SDS011;9782;52.930;15.562;2023-05-13T00:34:57;8.53;;;4.93;;
18689;SDS011;9782;52.930;15.562;2023-05-13T00:37:24;24.40;;;5.30;;
18689;SDS011;9782;52.930;15.562;2023-05-13T00:39:51;7.50;;;5.33;;
18689;SDS011;9782;52.930;15.562;2023-05-13T00:42:18;11.17;;;5.30;;
18689;SDS011;9782;52.930;15.562;2023-05-13T00:44:45;11.23;;;5.40;;
18689;SDS011;9782;52.930;15.562;2023-05-13T00:47:12;10.73;;;5.03;;
18689;SDS011;9782;52.930;15.562;2023-05-13T00:49:39;7.43;;;5.10;;
18689;SDS011;9782;52.930;15.562;2023-05-13T00:52:07;6.87;;;4.83;;
18689;SDS011;9782;52.930;15.562;2023-05-13T00:54:34;9.20;;;4.83;;
18689;SDS011;9782;52.930;15.562;2023-05-13T00:57:00;9.10;;;5.27;;
18689;SDS011;9782;52.930;15.562;2023-05-13T00:59:28;8.80;;;5.30;;
18689;SDS011;9782;52.930;15.562;2023-05-13T01:01:58;10.47;;;5.00;;
18689;SDS011;9782;52.930;15.562;2023-05-13T01:04:33;12.50;;;5.60;;
18689;SDS011;9782;52.930;15.562;2023-05-13T01:07:08;6.90;;;5.27;;
18689;SDS011;9782;52.930;15.562;2023-05-13T01:09:47;6.67;;;5.07;;
18689;SDS011;9782;52.930;15.562;2023-05-13T01:12:23;8.63;;;5.07;;
18689;SDS011;9782;52.930;15.562;2023-05-13T01:14:56;9.67;;;5.07;;
18689;SDS011;9782;52.930;15.562;2023-05-13T01:17:31;9.67;;;5.50;;
18689;SDS011;9782;52.930;15.562;2023-05-13T01:20:01;7.50;;;5.33;;
18689;SDS011;9782;52.930;15.562;2023-05-13T01:22:30;10.33;;;6.37;;
18689;SDS011;9782;52.930;15.562;2023-05-13T01:24:57;16.43;;;5.57;;
18689;SDS011;9782;52.930;15.562;2023-05-13T01:27:24;8.60;;;5.43;;
18689;SDS011;9782;52.930;15.562;2023-05-13T01:29:51;8.97;;;5.60;;
18689;SDS011;9782;52.930;15.562;2023-05-13T01:32:19;10.20;;;5.63;;
18689;SDS011;9782;52.930;15.562;2023-05-13T01:34:48;12.87;;;5.80;;
18689;SDS011;9782;52.930;15.562;2023-05-13T01:37:16;8.40;;;5.87;;
18689;SDS011;9782;52.930;15.562;2023-05-13T01:39:45;7.53;;;5.40;;
18689;SDS011;9782;52.930;15.562;2023-05-13T01:42:12;12.03;;;5.40;;
18689;SDS011;9782;52.930;15.562;2023-05-13T01:44:39;9.57;;;6.17;;
18689;SDS011;9782;52.930;15.562;2023-05-13T01:47:06;9.97;;;5.53;;
18689;SDS011;9782;52.930;15.562;2023-05-13T01:49:33;12.53;;;6.30;;
18689;SDS011;9782;52.930;15.562;2023-05-13T01:52:00;13.00;;;6.23;;
18689;SDS011;9782;52.930;15.562;2023-05-13T01:54:28;8.53;;;5.77;;
18689;SDS011;9782;52.930;15.562;2023-05-13T01:56:56;13.23;;;6.47;;
18689;SDS011;9782;52.930;15.562;2023-05-13T01:59:23;7.97;;;6.00;;
18689;SDS011;9782;52.930;15.562;2023-05-13T02:01:50;10.13;;;5.63;;
18689;SDS011;9782;52.930;15.562;2023-05-13T02:04:16;10.13;;;5.90;;
18689;SDS011;9782;52.930;15.562;2023-05-13T02:06:43;7.77;;;6.07;;
18689;SDS011;9782;52.930;15.562;2023-05-13T02:09:10;7.93;;;5.33;;
18689;SDS011;9782;52.930;15.562;2023-05-13T02:11:37;8.20;;;5.40;;
18689;SDS011;9782;52.930;15.562;2023-05-13T02:14:05;9.73;;;5.83;;
18689;SDS011;9782;52.930;15.562;2023-05-13T02:16:32;8.57;;;5.63;;
18689;SDS011;9782;52.930;15.562;2023-05-13T02:18:59;8.57;;;5.87;;
18689;SDS011;9782;52.930;15.562;2023-05-13T02:21:25;8.07;;;5.80;;
18689;SDS011;9782;52.930;15.562;2023-05-13T02:23:52;7.27;;;5.50;;
18689;SDS011;9782;52.930;15.562;2023-05-13T02:26:19;10.03;;;5.47;;
18689;SDS011;9782;52.930;15.562;2023-05-13T02:28:46;8.40;;;5.57;;
18689;SDS011;9782;52.930;15.562;2023-05-13T02:31:14;10.03;;;6.00;;
18689;SDS011;9782;52.930;15.562;2023-05-13T02:33:41;8.47;;;5.63;;
18689;SDS011;9782;52.930;15.562;2023-05-13T02:36:08;6.30;;;5.03;;
18689;SDS011;9782;52.930;15.562;2023-05-13T02:38:35;9.63;;;5.83;;
18689;SDS011;9782;52.930;15.562;2023-05-13T02:41:01;9.83;;;6.10;;
18689;SDS011;9782;52.930;15.562;2023-05-13T02:43:28;11.07;;;5.73;;
18689;SDS011;9782;52.930;15.562;2023-05-13T02:45:55;9.50;;;5.73;;
18689;SDS011;9782;52.930;15.562;2023-05-13T02:48:23;10.37;;;5.90;;
18689;SDS011;9782;52.930;15.562;2023-05-13T02:50:50;8.70;;;5.80;;
18689;SDS011;9782;52.930;15.562;2023-05-13T02:53:17;8.07;;;5.40;;
18689;SDS011;9782;52.930;15.562;2023-05-13T02:55:44;11.30;;;5.87;;
18689;SDS011;9782;52.930;15.562;2023-05-13T02:58:11;11.03;;;5.90;;
18689;SDS011;9782;52.930;15.562;2023-05-13T03:00:38;9.17;;;5.70;;
18689;SDS011;9782;52.930;15.562;2023-05-13T03:03:06;10.57;;;6.10;;
18689;SDS011;9782;52.930;15.562;2023-05-13T03:05:35;7.97;;;5.73;;
18689;SDS011;9782;52.930;15.562;2023-05-13T03:08:02;13.10;;;5.77;;
18689;SDS011;9782;52.930;15.562;2023-05-13T03:10:29;11.23;;;5.60;;
18689;SDS011;9782;52.930;15.562;2023-05-13T03:12:55;8.67;;;6.07;;
18689;SDS011;9782;52.930;15.562;2023-05-13T03:15:22;7.70;;;6.10;;
18689;SDS011;9782;52.930;15.562;2023-05-13T03:17:49;10.80;;;6.13;;
18689;SDS011;9782;52.930;15.562;2023-05-13T03:20:16;10.17;;;5.97;;
18689;SDS011;9782;52.930;15.562;2023-05-13T03:22:44;8.60;;;5.73;;
18689;SDS011;9782;52.930;15.562;2023-05-13T03:25:11;9.57;;;6.17;;
18689;SDS011;9782;52.930;15.562;2023-05-13T03:27:38;12.90;;;6.43;;
18689;SDS011;9782;52.930;15.562;2023-05-13T03:30:05;9.67;;;6.40;;
18689;SDS011;9782;52.930;15.562;2023-05-13T03:32:33;8.23;;;6.23;;
18689;SDS011;9782;52.930;15.562;2023-05-13T03:35:00;9.70;;;6.00;;
18689;SDS011;9782;52.930;15.562;2023-05-13T03:37:27;7.17;;;5.83;;
18689;SDS011;9782;52.930;15.562;2023-05-13T03:39:55;8.33;;;6.20;;
18689;SDS011;9782;52.930;15.562;2023-05-13T03:42:22;8.90;;;5.93;;
18689;SDS011;9782;52.930;15.562;2023-05-13T03:44:50;10.33;;;6.53;;
18689;SDS011;9782;52.930;15.562;2023-05-13T03:47:17;9.23;;;6.20;;
18689;SDS011;9782;52.930;15.562;2023-05-13T03:49:44;9.50;;;6.10;;
18689;SDS011;9782;52.930;15.562;2023-05-13T03:52:12;9.17;;;6.03;;
18689;SDS011;9782;52.930;15.562;2023-05-13T03:54:38;10.57;;;6.10;;
18689;SDS011;9782;52.930;15.562;2023-05-13T03:57:07;10.27;;;6.03;;
18689;SDS011;9782;52.930;15.562;2023-05-13T03:59:34;7.83;;;5.70;;
18689;SDS011;9782;52.930;15.562;2023-05-13T04:02:01;8.20;;;5.70;;
18689;SDS011;9782;52.930;15.562;2023-05-13T04:04:27;13.27;;;6.00;;
18689;SDS011;9782;52.930;15.562;2023-05-13T04:06:54;8.07;;;5.60;;
18689;SDS011;9782;52.930;15.562;2023-05-13T04:09:21;7.30;;;5.60;;
18689;SDS011;9782;52.930;15.562;2023-05-13T04:11:48;16.00;;;6.97;;
18689;SDS011;9782;52.930;15.562;2023-05-13T04:14:16;11.57;;;5.80;;
18689;SDS011;9782;52.930;15.562;2023-05-13T04:16:43;7.77;;;5.97;;
18689;SDS011;9782;52.930;15.562;2023-05-13T04:19:10;12.07;;;6.03;;
18689;SDS011;9782;52.930;15.562;2023-05-13T04:21:37;9.30;;;5.73;;
18689;SDS011;9782;52.930;15.562;2023-05-13T04:24:04;8.97;;;5.97;;
18689;SDS011;9782;52.930;15.562;2023-05-13T04:26:31;15.27;;;5.90;;
18689;SDS011;9782;52.930;15.562;2023-05-13T04:28:58;8.13;;;5.20;;
18689;SDS011;9782;52.930;15.562;2023-05-13T04:31:26;8.65;;;5.55;;
18689;SDS011;9782;52.930;15.562;2023-05-13T04:33:54;9.85;;;5.55;;
18689;SDS011;9782;52.930;15.562;2023-05-13T04:36:22;11.40;;;6.13;;
18689;SDS011;9782;52.930;15.562;2023-05-13T04:38:49;11.43;;;5.93;;
18689;SDS011;9782;52.930;15.562;2023-05-13T04:41:16;9.40;;;5.75;;
18689;SDS011;9782;52.930;15.562;2023-05-13T04:43:43;8.50;;;5.40;;
18689;SDS011;9782;52.930;15.562;2023-05-13T04:46:10;9.70;;;6.28;;
18689;SDS011;9782;52.930;15.562;2023-05-13T04:48:38;7.35;;;5.53;;
18689;SDS011;9782;52.930;15.562;2023-05-13T04:53:32;9.32;;;5.68;;
18689;SDS011;9782;52.930;15.562;2023-05-13T04:58:37;7.70;;;5.45;;
18689;SDS011;9782;52.930;15.562;2023-05-13T05:01:04;8.82;;;5.93;;
18689;SDS011;9782;52.930;15.562;2023-05-13T05:03:32;8.52;;;5.75;;
18689;SDS011;9782;52.930;15.562;2023-05-13T05:06:02;8.88;;;6.20;;
18689;SDS011;9782;52.930;15.562;2023-05-13T05:08:29;8.47;;;6.27;;
18689;SDS011;9782;52.930;15.562;2023-05-13T05:10:58;7.07;;;6.00;;
18689;SDS011;9782;52.930;15.562;2023-05-13T05:16:00;12.10;;;6.03;;
18689;SDS011;9782;52.930;15.562;2023-05-13T05:28:47;9.93;;;5.97;;
18689;SDS011;9782;52.930;15.562;2023-05-13T05:33:49;10.13;;;6.17;;
18689;SDS011;9782;52.930;15.562;2023-05-13T05:36:16;9.47;;;6.47;;
18689;SDS011;9782;52.930;15.562;2023-05-13T05:38:43;8.77;;;6.00;;
18689;SDS011;9782;52.930;15.562;2023-05-13T05:41:11;8.10;;;6.10;;
18689;SDS011;9782;52.930;15.562;2023-05-13T05:43:38;9.30;;;6.10;;
18689;SDS011;9782;52.930;15.562;2023-05-13T05:46:07;7.33;;;5.93;;
18689;SDS011;9782;52.930;15.562;2023-05-13T05:48:34;9.23;;;6.33;;
18689;SDS011;9782;52.930;15.562;2023-05-13T05:51:01;9.73;;;6.50;;
18689;SDS011;9782;52.930;15.562;2023-05-13T05:53:28;8.87;;;6.00;;
18689;SDS011;9782;52.930;15.562;2023-05-13T05:55:55;7.07;;;5.67;;
18689;SDS011;9782;52.930;15.562;2023-05-13T05:58:22;15.43;;;6.03;;
18689;SDS011;9782;52.930;15.562;2023-05-13T06:00:50;7.67;;;6.10;;
18689;SDS011;9782;52.930;15.562;2023-05-13T06:08:24;10.00;;;6.00;;
18689;SDS011;9782;52.930;15.562;2023-05-13T06:10:54;8.43;;;5.80;;
18689;SDS011;9782;52.930;15.562;2023-05-13T06:13:21;7.50;;;5.67;;
18689;SDS011;9782;52.930;15.562;2023-05-13T06:15:49;8.70;;;5.47;;
18689;SDS011;9782;52.930;15.562;2023-05-13T06:18:15;8.83;;;6.00;;
18689;SDS011;9782;52.930;15.562;2023-05-13T06:20:43;7.87;;;5.73;;
18689;SDS011;9782;52.930;15.562;2023-05-13T06:23:10;10.63;;;5.67;;
18689;SDS011;9782;52.930;15.562;2023-05-13T06:25:40;13.45;;;6.00;;
18689;SDS011;9782;52.930;15.562;2023-05-13T06:30:45;9.23;;;5.67;;
18689;SDS011;9782;52.930;15.562;2023-05-13T06:35:47;9.03;;;5.20;;
18689;SDS011;9782;52.930;15.562;2023-05-13T06:46:02;12.05;;;4.90;;
18689;SDS011;9782;52.930;15.562;2023-05-13T06:53:39;8.75;;;4.72;;
18689;SDS011;9782;52.930;15.562;2023-05-13T06:56:06;11.68;;;5.32;;
18689;SDS011;9782;52.930;15.562;2023-05-13T06:58:33;5.88;;;4.45;;
18689;SDS011;9782;52.930;15.562;2023-05-13T07:01:01;5.25;;;4.75;;
18689;SDS011;9782;52.930;15.562;2023-05-13T07:03:29;7.00;;;4.85;;
18689;SDS011;9782;52.930;15.562;2023-05-13T07:06:00;6.70;;;4.63;;
18689;SDS011;9782;52.930;15.562;2023-05-13T07:08:30;8.02;;;5.15;;
18689;SDS011;9782;52.930;15.562;2023-05-13T07:10:57;6.82;;;4.63;;
18689;SDS011;9782;52.930;15.562;2023-05-13T07:13:24;6.70;;;4.30;;
18689;SDS011;9782;52.930;15.562;2023-05-13T07:15:51;8.15;;;4.28;;
18689;SDS011;9782;52.930;15.562;2023-05-13T07:18:19;6.25;;;4.00;;
18689;SDS011;9782;52.930;15.562;2023-05-13T07:20:46;7.68;;;4.15;;
18689;SDS011;9782;52.930;15.562;2023-05-13T07:23:13;7.85;;;4.40;;
18689;SDS011;9782;52.930;15.562;2023-05-13T07:25:40;6.35;;;3.97;;
18689;SDS011;9782;52.930;15.562;2023-05-13T07:28:07;10.10;;;4.45;;
18689;SDS011;9782;52.930;15.562;2023-05-13T07:30:34;6.47;;;3.80;;
18689;SDS011;9782;52.930;15.562;2023-05-13T07:33:01;4.85;;;3.63;;
18689;SDS011;9782;52.930;15.562;2023-05-13T07:35:31;6.40;;;3.88;;
18689;SDS011;9782;52.930;15.562;2023-05-13T07:37:58;6.65;;;3.83;;
18689;SDS011;9782;52.930;15.562;2023-05-13T07:40:27;6.43;;;4.18;;
18689;SDS011;9782;52.930;15.562;2023-05-13T07:42:54;7.32;;;4.15;;
18689;SDS011;9782;52.930;15.562;2023-05-13T07:45:21;7.30;;;3.55;;
18689;SDS011;9782;52.930;15.562;2023-05-13T07:47:52;5.00;;;3.80;;
18689;SDS011;9782;52.930;15.562;2023-05-13T07:50:19;6.72;;;3.70;;
18689;SDS011;9782;52.930;15.562;2023-05-13T07:52:47;4.30;;;2.85;;
18689;SDS011;9782;52.930;15.562;2023-05-13T07:55:15;5.78;;;3.28;;
18689;SDS011;9782;52.930;15.562;2023-05-13T07:57:43;9.02;;;3.22;;
18689;SDS011;9782;52.930;15.562;2023-05-13T08:00:10;5.10;;;3.15;;
18689;SDS011;9782;52.930;15.562;2023-05-13T08:02:37;5.88;;;3.00;;
18689;SDS011;9782;52.930;15.562;2023-05-13T08:05:05;5.15;;;2.83;;
18689;SDS011;9782;52.930;15.562;2023-05-13T08:07:32;6.60;;;3.08;;
18689;SDS011;9782;52.930;15.562;2023-05-13T08:10:00;8.93;;;2.92;;
18689;SDS011;9782;52.930;15.562;2023-05-13T08:22:40;6.95;;;2.92;;
18689;SDS011;9782;52.930;15.562;2023-05-13T08:33:07;6.03;;;3.00;;
18689;SDS011;9782;52.930;15.562;2023-05-13T08:48:27;5.20;;;3.30;;
18689;SDS011;9782;52.930;15.562;2023-05-13T08:50:55;7.28;;;3.42;;
18689;SDS011;9782;52.930;15.562;2023-05-13T08:53:23;4.85;;;3.58;;
18689;SDS011;9782;52.930;15.562;2023-05-13T08:55:50;7.72;;;3.58;;
18689;SDS011;9782;52.930;15.562;2023-05-13T08:58:18;11.43;;;3.50;;
18689;SDS011;9782;52.930;15.562;2023-05-13T09:00:45;6.25;;;2.97;;
18689;SDS011;9782;52.930;15.562;2023-05-13T09:03:13;4.25;;;3.30;;
18689;SDS011;9782;52.930;15.562;2023-05-13T09:05:43;6.25;;;3.50;;
18689;SDS011;9782;52.930;15.562;2023-05-13T09:08:09;10.38;;;3.13;;
18689;SDS011;9782;52.930;15.562;2023-05-13T09:10:36;8.38;;;3.20;;
18689;SDS011;9782;52.930;15.562;2023-05-13T09:13:04;5.28;;;3.40;;
18689;SDS011;9782;52.930;15.562;2023-05-13T09:15:31;4.78;;;3.28;;
18689;SDS011;9782;52.930;15.562;2023-05-13T09:17:58;5.97;;;3.10;;
18689;SDS011;9782;52.930;15.562;2023-05-13T09:20:26;9.10;;;3.47;;
18689;SDS011;9782;52.930;15.562;2023-05-13T09:22:56;5.43;;;3.10;;
18689;SDS011;9782;52.930;15.562;2023-05-13T09:25:25;9.15;;;2.72;;
18689;SDS011;9782;52.930;15.562;2023-05-13T09:27:52;6.97;;;2.80;;
18689;SDS011;9782;52.930;15.562;2023-05-13T09:30:22;6.57;;;3.25;;
18689;SDS011;9782;52.930;15.562;2023-05-13T09:35:32;5.70;;;3.17;;
18689;SDS011;9782;52.930;15.562;2023-05-13T09:38:01;5.07;;;3.15;;
18689;SDS011;9782;52.930;15.562;2023-05-13T09:40:38;7.82;;;2.80;;
18689;SDS011;9782;52.930;15.562;2023-05-13T09:43:05;4.22;;;2.70;;
18689;SDS011;9782;52.930;15.562;2023-05-13T09:45:33;4.85;;;3.03;;
18689;SDS011;9782;52.930;15.562;2023-05-13T09:47:59;4.13;;;2.70;;
18689;SDS011;9782;52.930;15.562;2023-05-13T09:50:26;5.72;;;3.13;;
18689;SDS011;9782;52.930;15.562;2023-05-13T09:52:53;4.57;;;2.78;;
18689;SDS011;9782;52.930;15.562;2023-05-13T09:55:21;6.70;;;2.72;;
18689;SDS011;9782;52.930;15.562;2023-05-13T09:57:48;5.50;;;2.70;;
18689;SDS011;9782;52.930;15.562;2023-05-13T10:00:15;6.25;;;2.60;;
18689;SDS011;9782;52.930;15.562;2023-05-13T10:02:43;11.32;;;3.03;;
18689;SDS011;9782;52.930;15.562;2023-05-13T10:05:11;4.28;;;2.90;;
18689;SDS011;9782;52.930;15.562;2023-05-13T10:07:38;5.50;;;3.00;;
18689;SDS011;9782;52.930;15.562;2023-05-13T10:10:06;5.43;;;2.70;;
18689;SDS011;9782;52.930;15.562;2023-05-13T10:12:35;4.85;;;2.70;;
18689;SDS011;9782;52.930;15.562;2023-05-13T10:15:05;4.72;;;2.70;;
18689;SDS011;9782;52.930;15.562;2023-05-13T10:17:35;6.38;;;3.28;;
18689;SDS011;9782;52.930;15.562;2023-05-13T10:20:04;16.85;;;3.97;;
18689;SDS011;9782;52.930;15.562;2023-05-13T10:22:32;5.78;;;2.75;;
18689;SDS011;9782;52.930;15.562;2023-05-13T10:25:00;9.93;;;2.80;;
18689;SDS011;9782;52.930;15.562;2023-05-13T10:27:30;7.50;;;2.60;;
18689;SDS011;9782;52.930;15.562;2023-05-13T10:30:00;7.35;;;2.80;;
18689;SDS011;9782;52.930;15.562;2023-05-13T10:32:29;6.20;;;2.53;;
18689;SDS011;9782;52.930;15.562;2023-05-13T10:34:58;6.63;;;2.42;;
18689;SDS011;9782;52.930;15.562;2023-05-13T10:37:36;5.20;;;2.42;;
18689;SDS011;9782;52.930;15.562;2023-05-13T10:40:43;6.65;;;2.55;;
18689;SDS011;9782;52.930;15.562;2023-05-13T10:43:33;14.90;;;3.78;;
18689;SDS011;9782;52.930;15.562;2023-05-13T10:46:03;6.88;;;2.30;;
18689;SDS011;9782;52.930;15.562;2023-05-13T10:48:40;3.05;;;2.50;;
18689;SDS011;9782;52.930;15.562;2023-05-13T10:51:08;6.95;;;2.58;;
18689;SDS011;9782;52.930;15.562;2023-05-13T10:53:42;4.25;;;2.40;;
18689;SDS011;9782;52.930;15.562;2023-05-13T10:56:09;15.02;;;3.10;;
18689;SDS011;9782;52.930;15.562;2023-05-13T10:58:36;4.90;;;2.40;;
18689;SDS011;9782;52.930;15.562;2023-05-13T11:01:14;4.88;;;2.53;;
18689;SDS011;9782;52.930;15.562;2023-05-13T11:03:49;3.25;;;2.30;;
18689;SDS011;9782;52.930;15.562;2023-05-13T11:06:21;4.57;;;2.28;;
18689;SDS011;9782;52.930;15.562;2023-05-13T11:08:49;11.10;;;2.55;;
18689;SDS011;9782;52.930;15.562;2023-05-13T11:11:27;11.93;;;2.60;;
18689;SDS011;9782;52.930;15.562;2023-05-13T11:14:07;8.88;;;2.60;;
18689;SDS011;9782;52.930;15.562;2023-05-13T11:16:45;3.92;;;2.00;;
18689;SDS011;9782;52.930;15.562;2023-05-13T11:19:19;5.78;;;2.45;;
18689;SDS011;9782;52.930;15.562;2023-05-13T11:21:48;7.97;;;2.47;;
18689;SDS011;9782;52.930;15.562;2023-05-13T11:24:17;4.22;;;2.45;;
18689;SDS011;9782;52.930;15.562;2023-05-13T11:26:45;6.68;;;2.33;;
18689;SDS011;9782;52.930;15.562;2023-05-13T11:29:14;5.50;;;2.63;;
18689;SDS011;9782;52.930;15.562;2023-05-13T11:31:41;7.00;;;2.38;;
18689;SDS011;9782;52.930;15.562;2023-05-13T11:34:13;4.78;;;2.47;;
18689;SDS011;9782;52.930;15.562;2023-05-13T11:36:42;6.10;;;2.30;;
18689;SDS011;9782;52.930;15.562;2023-05-13T11:39:11;57.72;;;4.90;;
18689;SDS011;9782;52.930;15.562;2023-05-13T11:41:41;20.50;;;3.10;;
18689;SDS011;9782;52.930;15.562;2023-05-13T11:44:10;12.02;;;2.55;;
18689;SDS011;9782;52.930;15.562;2023-05-13T11:46:38;6.35;;;2.60;;
18689;SDS011;9782;52.930;15.562;2023-05-13T11:49:29;3.88;;;2.13;;
18689;SDS011;9782;52.930;15.562;2023-05-13T11:51:57;11.25;;;4.10;;
18689;SDS011;9782;52.930;15.562;2023-05-13T11:54:24;5.90;;;2.67;;
18689;SDS011;9782;52.930;15.562;2023-05-13T11:56:51;17.80;;;2.80;;
18689;SDS011;9782;52.930;15.562;2023-05-13T11:59:18;18.35;;;2.97;;
18689;SDS011;9782;52.930;15.562;2023-05-13T12:01:44;12.38;;;2.60;;
18689;SDS011;9782;52.930;15.562;2023-05-13T12:04:12;9.45;;;2.30;;
18689;SDS011;9782;52.930;15.562;2023-05-13T12:06:43;4.25;;;2.45;;
18689;SDS011;9782;52.930;15.562;2023-05-13T12:09:11;7.93;;;2.40;;
18689;SDS011;9782;52.930;15.562;2023-05-13T12:11:38;4.60;;;2.38;;
18689;SDS011;9782;52.930;15.562;2023-05-13T12:14:06;5.40;;;2.20;;
18689;SDS011;9782;52.930;15.562;2023-05-13T12:16:34;6.78;;;2.70;;
18689;SDS011;9782;52.930;15.562;2023-05-13T12:19:03;11.93;;;2.75;;
18689;SDS011;9782;52.930;15.562;2023-05-13T12:21:32;6.88;;;2.53;;
18689;SDS011;9782;52.930;15.562;2023-05-13T12:23:59;6.13;;;2.47;;
18689;SDS011;9782;52.930;15.562;2023-05-13T12:26:26;9.45;;;2.30;;
18689;SDS011;9782;52.930;15.562;2023-05-13T12:28:56;12.27;;;2.50;;
18689;SDS011;9782;52.930;15.562;2023-05-13T12:31:24;20.75;;;3.10;;
18689;SDS011;9782;52.930;15.562;2023-05-13T12:33:51;13.25;;;2.72;;
18689;SDS011;9782;52.930;15.562;2023-05-13T12:36:18;8.27;;;2.30;;
18689;SDS011;9782;52.930;15.562;2023-05-13T12:38:53;4.40;;;2.60;;
18689;SDS011;9782;52.930;15.562;2023-05-13T12:41:22;25.17;;;16.13;;
18689;SDS011;9782;52.930;15.562;2023-05-13T12:43:50;7.55;;;2.95;;
18689;SDS011;9782;52.930;15.562;2023-05-13T12:46:17;9.50;;;2.90;;
18689;SDS011;9782;52.930;15.562;2023-05-13T12:48:44;5.10;;;2.92;;
18689;SDS011;9782;52.930;15.562;2023-05-13T12:51:11;8.50;;;2.90;;
18689;SDS011;9782;52.930;15.562;2023-05-13T12:53:39;25.17;;;3.45;;
18689;SDS011;9782;52.930;15.562;2023-05-13T12:56:08;8.13;;;2.38;;
18689;SDS011;9782;52.930;15.562;2023-05-13T12:58:34;6.70;;;2.17;;
18689;SDS011;9782;52.930;15.562;2023-05-13T13:01:01;4.72;;;2.33;;
18689;SDS011;9782;52.930;15.562;2023-05-13T13:03:28;11.05;;;3.30;;
18689;SDS011;9782;52.930;15.562;2023-05-13T13:05:55;6.00;;;2.05;;
18689;SDS011;9782;52.930;15.562;2023-05-13T13:08:23;5.78;;;2.50;;
18689;SDS011;9782;52.930;15.562;2023-05-13T13:10:50;9.05;;;2.35;;
18689;SDS011;9782;52.930;15.562;2023-05-13T13:13:18;6.15;;;2.40;;
18689;SDS011;9782;52.930;15.562;2023-05-13T13:15:45;7.32;;;2.40;;
18689;SDS011;9782;52.930;15.562;2023-05-13T13:18:12;6.95;;;2.40;;
18689;SDS011;9782;52.930;15.562;2023-05-13T13:20:39;11.98;;;3.47;;
18689;SDS011;9782;52.930;15.562;2023-05-13T13:23:05;7.82;;;2.33;;
18689;SDS011;9782;52.930;15.562;2023-05-13T13:25:33;6.32;;;2.40;;
18689;SDS011;9782;52.930;15.562;2023-05-13T13:28:00;6.32;;;2.75;;
18689;SDS011;9782;52.930;15.562;2023-05-13T13:30:28;5.45;;;2.42;;
18689;SDS011;9782;52.930;15.562;2023-05-13T13:32:55;6.45;;;2.60;;
18689;SDS011;9782;52.930;15.562;2023-05-13T13:35:22;4.53;;;2.30;;
18689;SDS011;9782;52.930;15.562;2023-05-13T13:37:49;9.88;;;2.97;;
18689;SDS011;9782;52.930;15.562;2023-05-13T13:40:16;6.07;;;2.38;;
18689;SDS011;9782;52.930;15.562;2023-05-13T13:42:43;7.50;;;2.70;;
18689;SDS011;9782;52.930;15.562;2023-05-13T13:45:10;6.40;;;2.50;;
18689;SDS011;9782;52.930;15.562;2023-05-13T13:47:39;6.78;;;2.17;;
18689;SDS011;9782;52.930;15.562;2023-05-13T13:50:07;3.97;;;2.20;;
18689;SDS011;9782;52.930;15.562;2023-05-13T13:52:34;5.03;;;2.05;;
18689;SDS011;9782;52.930;15.562;2023-05-13T13:55:01;5.07;;;2.03;;
18689;SDS011;9782;52.930;15.562;2023-05-13T13:57:28;5.65;;;2.60;;
18689;SDS011;9782;52.930;15.562;2023-05-13T13:59:54;5.15;;;2.42;;
18689;SDS011;9782;52.930;15.562;2023-05-13T14:02:21;5.82;;;2.05;;
18689;SDS011;9782;52.930;15.562;2023-05-13T14:04:49;7.38;;;2.10;;
18689;SDS011;9782;52.930;15.562;2023-05-13T14:07:17;7.03;;;2.50;;
18689;SDS011;9782;52.930;15.562;2023-05-13T14:09:44;4.95;;;2.15;;
18689;SDS011;9782;52.930;15.562;2023-05-13T14:12:11;9.00;;;2.40;;
18689;SDS011;9782;52.930;15.562;2023-05-13T14:14:38;3.90;;;2.05;;
18689;SDS011;9782;52.930;15.562;2023-05-13T14:17:04;10.88;;;2.40;;
18689;SDS011;9782;52.930;15.562;2023-05-13T14:19:32;8.10;;;2.28;;
18689;SDS011;9782;52.930;15.562;2023-05-13T14:22:01;2.70;;;2.08;;
18689;SDS011;9782;52.930;15.562;2023-05-13T14:24:27;4.30;;;2.38;;
18689;SDS011;9782;52.930;15.562;2023-05-13T14:26:55;4.50;;;2.13;;
18689;SDS011;9782;52.930;15.562;2023-05-13T14:29:22;6.18;;;2.40;;
18689;SDS011;9782;52.930;15.562;2023-05-13T14:31:48;9.88;;;2.40;;
18689;SDS011;9782;52.930;15.562;2023-05-13T14:34:15;6.35;;;2.70;;
18689;SDS011;9782;52.930;15.562;2023-05-13T14:36:42;5.50;;;2.30;;
18689;SDS011;9782;52.930;15.562;2023-05-13T14:39:10;5.10;;;2.58;;
18689;SDS011;9782;52.930;15.562;2023-05-13T14:41:37;4.45;;;2.50;;
18689;SDS011;9782;52.930;15.562;2023-05-13T14:44:04;5.05;;;2.30;;
18689;SDS011;9782;52.930;15.562;2023-05-13T14:46:31;5.93;;;2.63;;
18689;SDS011;9782;52.930;15.562;2023-05-13T14:49:01;4.97;;;2.15;;
18689;SDS011;9782;52.930;15.562;2023-05-13T14:51:27;5.63;;;2.22;;
18689;SDS011;9782;52.930;15.562;2023-05-13T14:53:54;8.60;;;2.42;;
18689;SDS011;9782;52.930;15.562;2023-05-13T14:56:22;4.60;;;2.45;;
18689;SDS011;9782;52.930;15.562;2023-05-13T14:58:50;7.32;;;2.35;;
18689;SDS011;9782;52.930;15.562;2023-05-13T15:01:17;3.60;;;2.22;;
18689;SDS011;9782;52.930;15.562;2023-05-13T15:03:44;4.05;;;2.33;;
18689;SDS011;9782;52.930;15.562;2023-05-13T15:06:11;5.80;;;2.38;;
18689;SDS011;9782;52.930;15.562;2023-05-13T15:08:38;3.22;;;2.20;;
18689;SDS011;9782;52.930;15.562;2023-05-13T15:11:05;6.80;;;2.20;;
18689;SDS011;9782;52.930;15.562;2023-05-13T15:13:33;6.70;;;2.72;;
18689;SDS011;9782;52.930;15.562;2023-05-13T15:16:01;4.90;;;2.15;;
18689;SDS011;9782;52.930;15.562;2023-05-13T15:18:28;4.07;;;2.15;;
18689;SDS011;9782;52.930;15.562;2023-05-13T15:20:55;6.13;;;2.50;;
18689;SDS011;9782;52.930;15.562;2023-05-13T15:23:22;2.70;;;2.13;;
18689;SDS011;9782;52.930;15.562;2023-05-13T15:25:49;6.63;;;2.45;;
18689;SDS011;9782;52.930;15.562;2023-05-13T15:28:16;5.50;;;2.50;;
18689;SDS011;9782;52.930;15.562;2023-05-13T15:30:44;5.72;;;3.30;;
18689;SDS011;9782;52.930;15.562;2023-05-13T15:33:11;3.53;;;2.60;;
18689;SDS011;9782;52.930;15.562;2023-05-13T15:35:37;3.25;;;2.22;;
18689;SDS011;9782;52.930;15.562;2023-05-13T15:38:05;4.28;;;2.38;;
18689;SDS011;9782;52.930;15.562;2023-05-13T15:40:33;2.67;;;2.40;;
18689;SDS011;9782;52.930;15.562;2023-05-13T15:43:00;4.07;;;2.50;;
18689;SDS011;9782;52.930;15.562;2023-05-13T15:45:27;3.13;;;2.60;;
18689;SDS011;9782;52.930;15.562;2023-05-13T15:47:56;4.93;;;2.45;;
18689;SDS011;9782;52.930;15.562;2023-05-13T15:50:22;4.95;;;2.47;;
18689;SDS011;9782;52.930;15.562;2023-05-13T15:52:50;5.35;;;2.28;;
18689;SDS011;9782;52.930;15.562;2023-05-13T15:55:18;5.07;;;2.70;;
18689;SDS011;9782;52.930;15.562;2023-05-13T15:57:45;3.85;;;2.50;;
18689;SDS011;9782;52.930;15.562;2023-05-13T16:00:12;3.42;;;2.40;;
18689;SDS011;9782;52.930;15.562;2023-05-13T16:02:40;5.60;;;2.42;;
18689;SDS011;9782;52.930;15.562;2023-05-13T16:05:09;4.60;;;2.65;;
18689;SDS011;9782;52.930;15.562;2023-05-13T16:07:39;5.13;;;2.85;;